Time;durP1;ratioP1;P1;durP2;ratioP2;P2;SDS_P1;SDS_P2;PMS_P1;PMS_P2;Temp;Humidity;BMP_temperature;BMP_pressure;BME280_temperature;BME280_humidity;BME280_pressure;Samples;Min_cycle;Max_cycle;Signal;HPM_P1;HPM_P2
2023/03/31 00:01:32;;;;;;;35.08;6.00;;;9.30;99.90;;;;;;4875757;29;20064;-72
2023/03/31 00:04:03;;;;;;;34.22;4.78;;;9.30;99.90;;;;;;4861275;29;20125;-72
2023/03/31 00:06:36;;;;;;;34.33;5.10;;;9.30;99.90;;;;;;4877883;29;20063;-72
2023/03/31 00:09:08;;;;;;;35.42;5.63;;;9.20;99.90;;;;;;4875816;29;20049;-72
2023/03/31 00:11:34;;;;;;;36.13;5.47;;;9.20;99.90;;;;;;4861082;29;20488;-72
2023/03/31 00:14:00;;;;;;;34.13;4.93;;;9.20;99.90;;;;;;4858934;29;20028;-72
2023/03/31 00:16:26;;;;;;;37.87;5.93;;;9.20;99.90;;;;;;4877624;29;20642;-72
2023/03/31 00:18:51;;;;;;;27.10;4.60;;;9.20;99.90;;;;;;4860461;29;20046;-72
2023/03/31 00:21:32;;;;;;;32.13;5.07;;;9.10;99.90;;;;;;4861832;29;20040;-72
2023/03/31 00:24:06;;;;;;;28.67;4.68;;;9.10;99.90;;;;;;4861104;29;20497;-72
2023/03/31 00:26:33;;;;;;;33.38;5.25;;;9.00;99.90;;;;;;4861423;29;20055;-72
2023/03/31 00:29:00;;;;;;;35.42;5.05;;;8.90;99.90;;;;;;4876896;29;20053;-72
2023/03/31 00:31:27;;;;;;;35.00;5.72;;;8.90;99.90;;;;;;4862038;29;20063;-72
2023/03/31 00:33:53;;;;;;;34.80;5.63;;;8.80;99.90;;;;;;4858135;29;20051;-72
2023/03/31 00:36:28;;;;;;;27.85;5.50;;;8.80;99.90;;;;;;4876953;29;20044;-72
2023/03/31 00:38:59;;;;;;;25.45;5.13;;;8.70;99.90;;;;;;4877187;29;20068;-72
2023/03/31 00:41:26;;;;;;;28.73;5.15;;;8.70;99.90;;;;;;4876911;29;20059;-72
2023/03/31 00:44:11;;;;;;;33.38;5.32;;;8.60;99.90;;;;;;4874585;29;20532;-72
2023/03/31 00:46:48;;;;;;;38.63;6.15;;;8.50;99.90;;;;;;4875371;29;20052;-72
2023/03/31 00:49:31;;;;;;;38.47;5.25;;;8.50;99.90;;;;;;4875722;29;20466;-72
2023/03/31 00:52:25;;;;;;;32.25;5.20;;;8.40;99.90;;;;;;4877016;29;20048;-72
2023/03/31 00:54:58;;;;;;;38.33;5.95;;;8.40;99.90;;;;;;4874142;29;20048;-72
2023/03/31 00:57:27;;;;;;;29.10;5.40;;;8.40;99.90;;;;;;4891452;29;20128;-72
2023/03/31 00:59:57;;;;;;;37.42;5.82;;;8.30;99.90;;;;;;4874116;29;20068;-72
2023/03/31 01:02:26;;;;;;;33.38;5.00;;;8.30;99.90;;;;;;4876941;29;20040;-72
2023/03/31 01:04:58;;;;;;;28.80;4.82;;;8.30;99.90;;;;;;4876515;29;20119;-72
2023/03/31 01:07:44;;;;;;;31.45;5.72;;;8.30;99.90;;;;;;4860356;29;20390;-72
2023/03/31 01:10:11;;;;;;;27.75;5.05;;;8.30;99.90;;;;;;4861947;29;20036;-72
2023/03/31 01:12:40;;;;;;;27.15;5.43;;;8.30;99.90;;;;;;4859325;29;20041;-72
2023/03/31 01:15:07;;;;;;;29.15;5.97;;;8.30;99.90;;;;;;4861432;29;20135;-72
2023/03/31 01:17:33;;;;;;;25.33;5.22;;;8.30;99.90;;;;;;4871867;29;20048;-72
2023/03/31 01:20:29;;;;;;;41.73;5.57;;;8.30;99.90;;;;;;4861471;29;20524;-72
2023/03/31 01:23:01;;;;;;;32.60;4.85;;;8.30;99.90;;;;;;4855268;29;20297;-72
2023/03/31 01:26:13;;;;;;;31.10;4.18;;;8.30;99.90;;;;;;4875835;29;20109;-72
2023/03/31 01:28:59;;;;;;;31.60;4.82;;;8.30;99.90;;;;;;4860258;29;20044;-72
2023/03/31 01:31:30;;;;;;;;;;;8.40;99.90;;;;;;4861575;29;20045;-72
2023/03/31 01:34:14;;;;;;;24.80;3.90;;;8.50;99.90;;;;;;4871554;29;19975;-72
2023/03/31 01:37:15;;;;;;;30.70;5.13;;;8.60;99.90;;;;;;4860862;29;20047;-72
2023/03/31 01:40:38;;;;;;;31.75;4.40;;;8.60;99.90;;;;;;4782820;29;20042;-72
2023/03/31 01:43:29;;;;;;;28.98;4.38;;;8.70;99.90;;;;;;4751192;30;20051;-72
2023/03/31 01:46:36;;;;;;;33.08;5.00;;;8.80;99.90;;;;;;4765924;30;20044;-72
2023/03/31 01:49:43;;;;;;;27.02;4.80;;;8.90;99.90;;;;;;4857163;29;20067;-72
2023/03/31 01:52:12;;;;;;;30.60;3.90;;;8.90;99.90;;;;;;4778477;29;20161;-72
2023/03/31 01:54:49;;;;;;;30.10;4.28;;;9.00;99.90;;;;;;4843638;29;20056;-71
2023/03/31 01:57:21;;;;;;;25.40;4.30;;;9.10;99.90;;;;;;4859157;29;20047;-71
2023/03/31 02:00:10;;;;;;;23.42;3.83;;;9.10;99.90;;;;;;4860588;29;20056;-72
2023/03/31 02:02:58;;;;;;;31.13;5.45;;;9.20;99.90;;;;;;4863532;29;20392;-72
2023/03/31 02:05:40;;;;;;;22.10;3.90;;;9.20;99.90;;;;;;4878453;29;20047;-72
2023/03/31 02:08:19;;;;;;;37.13;4.05;;;9.20;99.90;;;;;;4876730;29;20633;-72
2023/03/31 02:10:46;;;;;;;29.15;4.45;;;9.20;99.90;;;;;;4862486;29;20045;-71
2023/03/31 02:13:13;;;;;;;28.60;4.30;;;9.10;99.90;;;;;;4878714;29;20045;-72
2023/03/31 02:15:43;;;;;;;28.92;3.53;;;9.10;99.90;;;;;;4863111;29;20998;-71
2023/03/31 02:18:16;;;;;;;26.23;3.95;;;9.10;99.90;;;;;;4878288;29;20052;-72
2023/03/31 02:20:44;;;;;;;19.25;3.58;;;9.20;99.90;;;;;;4878028;29;20517;-72
2023/03/31 02:23:14;;;;;;;23.67;3.63;;;9.20;99.90;;;;;;4878485;29;20197;-72
2023/03/31 02:25:52;;;;;;;30.25;4.25;;;9.20;99.90;;;;;;4860852;29;20119;-71
2023/03/31 02:28:22;;;;;;;26.75;4.20;;;9.10;99.90;;;;;;4876815;29;20156;-72
2023/03/31 02:30:52;;;;;;;26.10;4.15;;;9.10;99.90;;;;;;4878791;29;20100;-72
2023/03/31 02:33:18;;;;;;;29.30;4.15;;;9.00;99.90;;;;;;4889525;29;20114;-72
2023/03/31 02:35:44;;;;;;;28.50;4.67;;;9.00;99.90;;;;;;4877508;29;20045;-71
2023/03/31 02:38:10;;;;;;;26.47;3.80;;;8.90;99.90;;;;;;4878469;29;20059;-71
2023/03/31 02:40:36;;;;;;;27.40;4.67;;;8.90;99.90;;;;;;4861819;29;20048;-72
2023/03/31 02:43:02;;;;;;;29.87;4.83;;;8.80;99.90;;;;;;4859807;29;20128;-72
2023/03/31 02:45:57;;;;;;;28.63;3.70;;;8.80;99.90;;;;;;4878107;29;20115;-72
2023/03/31 02:48:28;;;;;;;30.02;4.70;;;8.80;99.90;;;;;;4859611;29;20509;-71
2023/03/31 02:51:00;;;;;;;26.38;3.80;;;8.80;99.90;;;;;;4875637;29;20100;-71
2023/03/31 02:53:32;;;;;;;24.23;3.80;;;8.70;99.90;;;;;;4875906;29;20135;-71
2023/03/31 02:56:37;;;;;;;23.02;3.80;;;8.80;99.90;;;;;;4861547;29;20131;-71
2023/03/31 02:59:23;;;;;;;21.65;3.67;;;8.80;99.90;;;;;;4873828;29;20055;-71
2023/03/31 03:02:07;;;;;;;;;;;8.80;99.90;;;;;;4879502;29;20493;-71
2023/03/31 03:04:52;;;;;;;32.65;3.95;;;8.80;99.90;;;;;;4878237;29;19923;-71
2023/03/31 03:08:01;;;;;;;31.33;4.88;;;8.80;99.90;;;;;;4866536;29;20052;-71
2023/03/31 03:10:48;;;;;;;23.15;3.88;;;8.90;99.90;;;;;;4861239;29;20501;-71
2023/03/31 03:13:33;;;;;;;28.95;5.13;;;8.90;99.90;;;;;;4877153;29;20047;-71
2023/03/31 03:16:26;;;;;;;23.50;4.40;;;8.90;99.90;;;;;;4877151;29;20144;-71
2023/03/31 03:19:00;;;;;;;19.75;3.55;;;8.90;99.90;;;;;;4859701;29;20087;-71
2023/03/31 03:21:26;;;;;;;21.30;3.95;;;8.90;99.90;;;;;;4863267;29;20048;-71
2023/03/31 03:23:52;;;;;;;19.60;4.25;;;9.00;99.90;;;;;;4862932;29;20509;-71
2023/03/31 03:26:23;;;;;;;24.25;4.10;;;9.00;99.90;;;;;;4878693;29;20044;-71
2023/03/31 03:28:52;;;;;;;20.80;3.55;;;9.00;99.90;;;;;;4878126;29;20048;-71
2023/03/31 03:31:18;;;;;;;17.80;3.85;;;9.00;99.90;;;;;;4863378;29;20625;-71
2023/03/31 03:33:45;;;;;;;21.33;3.88;;;9.00;99.90;;;;;;4861724;29;20032;-71
2023/03/31 03:36:11;;;;;;;20.02;3.70;;;9.00;99.90;;;;;;4863045;29;20045;-71
2023/03/31 03:38:37;;;;;;;19.75;3.53;;;9.00;99.90;;;;;;4863038;29;20119;-71
2023/03/31 03:41:03;;;;;;;17.37;3.57;;;9.00;99.90;;;;;;4877346;29;20083;-71
2023/03/31 03:43:29;;;;;;;14.40;4.00;;;9.00;99.90;;;;;;4878094;29;20048;-71
2023/03/31 03:45:55;;;;;;;18.77;4.75;;;9.00;99.90;;;;;;4878450;29;20565;-71
2023/03/31 03:48:21;;;;;;;17.10;5.37;;;9.10;99.90;;;;;;4862438;29;20079;-71
2023/03/31 03:50:46;;;;;;;18.93;4.90;;;9.10;99.90;;;;;;4878364;29;20059;-71
2023/03/31 03:53:14;;;;;;;19.80;5.63;;;9.10;99.90;;;;;;4877930;29;20122;-71
2023/03/31 03:55:39;;;;;;;22.48;4.97;;;9.10;99.90;;;;;;4862022;29;20036;-71
2023/03/31 03:58:06;;;;;;;19.07;5.73;;;9.10;99.90;;;;;;4862427;29;20416;-71
2023/03/31 04:00:31;;;;;;;19.73;5.82;;;9.10;99.90;;;;;;4862907;29;20355;-71
2023/03/31 04:02:57;;;;;;;19.37;5.83;;;9.20;99.90;;;;;;4878003;29;20139;-71
2023/03/31 04:05:23;;;;;;;19.00;5.23;;;9.20;99.90;;;;;;4877585;29;20051;-71
2023/03/31 04:07:49;;;;;;;21.43;5.47;;;9.20;99.90;;;;;;4877677;29;20045;-71
2023/03/31 04:10:15;;;;;;;20.17;5.77;;;9.30;99.90;;;;;;4878068;29;20072;-71
2023/03/31 04:12:40;;;;;;;15.83;5.23;;;9.30;99.90;;;;;;4861363;29;20446;-71
2023/03/31 04:15:07;;;;;;;20.17;5.43;;;9.30;99.90;;;;;;4858903;29;20088;-71
2023/03/31 04:17:33;;;;;;;21.42;5.53;;;9.30;99.90;;;;;;4861810;29;20041;-72
2023/03/31 04:20:08;;;;;;;14.43;5.20;;;9.20;99.90;;;;;;4862881;29;20040;-72
2023/03/31 04:22:40;;;;;;;17.83;6.22;;;9.20;99.90;;;;;;4872928;29;20125;-72
2023/03/31 04:25:29;;;;;;;18.20;5.32;;;9.20;99.90;;;;;;4862171;29;20048;-72
2023/03/31 04:27:55;;;;;;;12.50;5.35;;;9.20;99.90;;;;;;4861304;29;20604;-72
2023/03/31 04:30:22;;;;;;;17.70;5.77;;;9.10;99.90;;;;;;4877534;29;20143;-72
2023/03/31 04:32:53;;;;;;;20.05;5.35;;;9.10;99.90;;;;;;4862385;29;20040;-72
2023/03/31 04:35:21;;;;;;;16.58;5.72;;;9.10;99.90;;;;;;4857787;29;20355;-72
2023/03/31 04:37:48;;;;;;;17.52;5.43;;;9.10;99.90;;;;;;4858650;29;20076;-72
2023/03/31 04:40:14;;;;;;;17.58;6.00;;;9.10;99.90;;;;;;4872188;29;20054;-72
2023/03/31 04:42:40;;;;;;;15.63;5.95;;;9.10;99.90;;;;;;4857748;29;20048;-72
2023/03/31 04:45:06;;;;;;;16.30;6.43;;;9.10;99.90;;;;;;4859915;29;20039;-72
2023/03/31 04:47:32;;;;;;;15.57;6.10;;;9.10;99.90;;;;;;4852321;29;20051;-72
2023/03/31 04:49:57;;;;;;;16.47;5.90;;;9.10;99.90;;;;;;4859965;29;20468;-72
2023/03/31 04:52:23;;;;;;;16.97;5.90;;;9.20;99.90;;;;;;4851744;29;20048;-72
2023/03/31 04:54:49;;;;;;;15.80;6.47;;;9.20;99.90;;;;;;4875612;29;20048;-72
2023/03/31 04:57:14;;;;;;;18.97;6.70;;;9.20;99.90;;;;;;4860241;29;20048;-72
2023/03/31 04:59:40;;;;;;;18.67;6.17;;;9.20;99.90;;;;;;4859611;29;20055;-72
2023/03/31 05:02:06;;;;;;;19.70;6.97;;;9.20;99.90;;;;;;4853966;29;20063;-72
2023/03/31 05:04:32;;;;;;;18.90;6.50;;;9.20;99.90;;;;;;4873274;29;20450;-72
2023/03/31 05:06:57;;;;;;;14.50;6.70;;;9.20;99.90;;;;;;4871244;29;20135;-72
2023/03/31 05:09:23;;;;;;;16.43;6.77;;;9.20;99.90;;;;;;4859651;29;20672;-72
2023/03/31 05:11:49;;;;;;;18.40;6.73;;;9.20;99.90;;;;;;4860249;29;20045;-72
2023/03/31 05:14:14;;;;;;;20.23;7.03;;;9.20;99.90;;;;;;4854442;29;20072;-72
2023/03/31 05:16:40;;;;;;;18.27;6.93;;;9.20;99.90;;;;;;4876096;29;20151;-72
2023/03/31 05:19:06;;;;;;;20.37;7.83;;;9.20;99.90;;;;;;4874916;29;20045;-72
2023/03/31 05:21:32;;;;;;;23.23;8.27;;;9.20;99.90;;;;;;4873482;29;20744;-73
2023/03/31 05:23:58;;;;;;;19.40;7.63;;;9.20;99.90;;;;;;4856277;29;20064;-72
2023/03/31 05:26:24;;;;;;;17.57;8.33;;;9.20;99.90;;;;;;4874139;29;20041;-72
2023/03/31 05:28:53;;;;;;;21.02;9.23;;;9.20;99.90;;;;;;4875484;29;20532;-73
2023/03/31 05:31:19;;;;;;;18.70;8.10;;;9.20;99.90;;;;;;4874050;29;20040;-73
2023/03/31 05:33:45;;;;;;;21.83;8.33;;;9.20;99.90;;;;;;4876560;29;20408;-73
2023/03/31 05:36:14;;;;;;;15.18;7.22;;;9.20;99.90;;;;;;4883302;29;20802;-73
2023/03/31 05:38:40;;;;;;;21.92;7.60;;;9.20;99.90;;;;;;4878645;29;20044;-72
2023/03/31 05:41:12;;;;;;;20.23;7.15;;;9.20;99.90;;;;;;4879059;29;20750;-72
2023/03/31 05:43:38;;;;;;;17.63;7.28;;;9.20;99.90;;;;;;4871896;29;20528;-72
2023/03/31 05:46:05;;;;;;;18.20;7.75;;;9.20;99.90;;;;;;4861519;29;20048;-72
2023/03/31 05:48:31;;;;;;;20.27;7.88;;;9.20;99.90;;;;;;4867109;29;20232;-72
2023/03/31 05:51:00;;;;;;;21.53;7.67;;;9.20;99.90;;;;;;4881996;29;20040;-72
2023/03/31 05:53:26;;;;;;;22.05;9.20;;;9.20;99.90;;;;;;4867496;29;20040;-72
2023/03/31 05:55:57;;;;;;;21.73;9.38;;;9.20;99.90;;;;;;4866695;29;20076;-72
2023/03/31 05:58:23;;;;;;;21.13;9.82;;;9.20;99.90;;;;;;4881870;29;20051;-72
2023/03/31 06:00:49;;;;;;;23.63;9.60;;;9.30;99.90;;;;;;4866481;29;20048;-72
2023/03/31 06:03:14;;;;;;;22.60;10.23;;;9.30;99.90;;;;;;4866168;29;20163;-73
2023/03/31 06:05:47;;;;;;;27.63;9.93;;;9.30;99.90;;;;;;4883043;29;20713;-73
2023/03/31 06:08:12;;;;;;;16.80;8.85;;;9.30;99.90;;;;;;4867182;29;20045;-73
2023/03/31 06:10:38;;;;;;;17.60;7.80;;;9.30;99.90;;;;;;4879490;29;20513;-73
2023/03/31 06:13:04;;;;;;;18.37;8.47;;;9.30;99.90;;;;;;4862731;29;20044;-72
2023/03/31 06:15:30;;;;;;;17.57;7.47;;;9.30;99.90;;;;;;4865885;29;20520;-72
2023/03/31 06:17:56;;;;;;;12.27;5.47;;;9.30;99.90;;;;;;4863470;29;20040;-73
2023/03/31 06:20:21;;;;;;;12.47;6.07;;;9.40;99.90;;;;;;4881660;29;20044;-73
2023/03/31 06:22:47;;;;;;;11.30;5.47;;;9.40;99.90;;;;;;4865981;29;20560;-73
2023/03/31 06:25:13;;;;;;;14.17;5.20;;;9.40;99.90;;;;;;4865123;29;20044;-73
2023/03/31 06:27:39;;;;;;;12.73;5.40;;;9.40;99.90;;;;;;4865788;29;20040;-73
2023/03/31 06:30:06;;;;;;;9.40;4.47;;;9.40;99.90;;;;;;4881260;29;20090;-73
2023/03/31 06:32:31;;;;;;;13.27;4.75;;;9.40;99.90;;;;;;4865884;29;20064;-73
2023/03/31 06:34:57;;;;;;;9.90;4.13;;;9.40;99.90;;;;;;4865069;29;20052;-72
2023/03/31 06:37:23;;;;;;;14.70;4.30;;;9.40;99.90;;;;;;4877286;29;20044;-72
2023/03/31 06:39:49;;;;;;;9.33;3.90;;;9.50;99.90;;;;;;4881441;29;20053;-73
2023/03/31 06:42:15;;;;;;;14.10;4.07;;;9.50;99.90;;;;;;4858328;29;20132;-72
2023/03/31 06:44:40;;;;;;;12.63;4.50;;;9.40;99.90;;;;;;4860208;29;20145;-72
2023/03/31 06:47:06;;;;;;;13.70;3.70;;;9.40;99.90;;;;;;4873115;29;20119;-73
2023/03/31 06:49:32;;;;;;;9.07;3.70;;;9.40;99.90;;;;;;4861720;29;20417;-73
2023/03/31 06:51:59;;;;;;;9.70;3.53;;;9.40;99.90;;;;;;4878904;29;20458;-73
2023/03/31 06:54:25;;;;;;;9.57;3.60;;;9.40;99.90;;;;;;4861987;29;20057;-73
2023/03/31 06:56:50;;;;;;;11.23;3.87;;;9.40;99.90;;;;;;4873990;29;20717;-73
2023/03/31 06:59:16;;;;;;;10.80;3.90;;;9.40;99.90;;;;;;4864645;29;20410;-73
2023/03/31 07:01:44;;;;;;;11.10;3.93;;;9.40;99.90;;;;;;4881923;29;20063;-74
2023/03/31 07:04:09;;;;;;;11.38;4.03;;;9.40;99.90;;;;;;4880275;29;20860;-76
2023/03/31 07:06:35;;;;;;;10.33;4.30;;;9.30;99.90;;;;;;4863383;29;20090;-74
2023/03/31 07:09:01;;;;;;;8.70;3.80;;;9.30;99.90;;;;;;4864041;29;20076;-74
2023/03/31 07:11:27;;;;;;;7.63;2.70;;;9.30;99.90;;;;;;4865505;29;20048;-73
2023/03/31 07:13:52;;;;;;;9.50;2.80;;;9.30;99.90;;;;;;4879540;29;20048;-73
2023/03/31 07:16:18;;;;;;;7.47;2.50;;;9.30;99.90;;;;;;4880289;29;20465;-73
2023/03/31 07:18:44;;;;;;;6.87;2.23;;;9.20;99.90;;;;;;4880238;29;20048;-73
2023/03/31 07:21:10;;;;;;;7.82;2.28;;;9.20;99.90;;;;;;4863174;29;20051;-73
2023/03/31 07:23:36;;;;;;;7.23;2.30;;;9.20;99.90;;;;;;4866092;29;20485;-74
2023/03/31 07:26:01;;;;;;;9.63;2.40;;;9.20;99.90;;;;;;4866315;29;20047;-76
2023/03/31 07:28:28;;;;;;;7.03;2.03;;;9.20;99.90;;;;;;4879164;29;20056;-74
2023/03/31 07:30:54;;;;;;;4.18;2.17;;;9.20;99.90;;;;;;4863185;29;20036;-73
2023/03/31 07:33:20;;;;;;;9.03;2.93;;;9.30;99.90;;;;;;4862941;29;20041;-73
2023/03/31 07:35:46;;;;;;;8.03;2.80;;;9.30;99.90;;;;;;4881508;29;20065;-74
2023/03/31 07:38:12;;;;;;;11.70;3.50;;;9.30;99.90;;;;;;4863359;29;20068;-74
2023/03/31 07:40:39;;;;;;;7.65;3.20;;;9.30;99.90;;;;;;4892701;29;20048;-73
2023/03/31 07:43:08;;;;;;;9.50;3.55;;;9.40;99.90;;;;;;4861489;29;20137;-73
2023/03/31 07:45:34;;;;;;;9.32;3.60;;;9.40;99.90;;;;;;4864778;29;20036;-73
2023/03/31 07:48:00;;;;;;;9.87;4.13;;;9.40;99.90;;;;;;4864195;29;20180;-73
2023/03/31 07:50:25;;;;;;;8.20;3.80;;;9.40;99.90;;;;;;4879071;29;20048;-72
2023/03/31 07:52:51;;;;;;;9.70;4.30;;;9.50;99.90;;;;;;4862059;29;20044;-72
2023/03/31 07:55:18;;;;;;;9.17;4.60;;;9.50;99.90;;;;;;4878714;29;20035;-73
2023/03/31 07:57:45;;;;;;;13.48;5.03;;;9.50;99.90;;;;;;4860210;29;20101;-73
2023/03/31 08:00:13;;;;;;;11.82;5.35;;;9.60;99.90;;;;;;4874720;29;20075;-72
2023/03/31 08:02:41;;;;;;;11.73;5.05;;;9.60;99.90;;;;;;4863341;29;20053;-72
2023/03/31 08:05:08;;;;;;;10.70;4.53;;;9.70;99.90;;;;;;4879669;29;20040;-72
2023/03/31 08:07:35;;;;;;;11.93;5.28;;;9.70;99.90;;;;;;4879149;29;20044;-72
2023/03/31 08:10:03;;;;;;;11.75;5.57;;;9.70;99.90;;;;;;4859358;29;20533;-72
2023/03/31 08:12:29;;;;;;;14.90;6.22;;;9.80;99.90;;;;;;4859103;29;20083;-72
2023/03/31 08:14:55;;;;;;;12.63;5.33;;;9.80;99.90;;;;;;4862579;29;20068;-72
2023/03/31 08:17:20;;;;;;;11.17;3.93;;;9.90;99.90;;;;;;4875294;29;20483;-72
2023/03/31 08:19:46;;;;;;;11.93;4.23;;;10.00;99.90;;;;;;4863404;29;20067;-72
2023/03/31 08:22:12;;;;;;;10.17;3.67;;;10.10;99.90;;;;;;4875720;29;20053;-73
2023/03/31 08:24:37;;;;;;;7.97;3.80;;;10.10;99.90;;;;;;4863204;29;20351;-72
2023/03/31 08:27:03;;;;;;;10.90;3.90;;;10.20;99.90;;;;;;4861795;29;20036;-72
2023/03/31 08:29:29;;;;;;;9.57;3.70;;;10.30;99.90;;;;;;4861958;29;20442;-72
2023/03/31 08:31:54;;;;;;;7.70;3.67;;;10.40;99.90;;;;;;4861689;29;20041;-72
2023/03/31 08:34:20;;;;;;;9.43;3.60;;;10.40;99.90;;;;;;4859113;29;20044;-72
2023/03/31 08:36:46;;;;;;;6.10;2.97;;;10.50;99.90;;;;;;4861749;29;20100;-72
2023/03/31 08:39:12;;;;;;;6.20;3.20;;;10.60;99.90;;;;;;4862455;29;20044;-72
2023/03/31 08:41:44;;;;;;;9.67;3.80;;;10.70;99.90;;;;;;4856606;29;20100;-72
2023/03/31 08:44:27;;;;;;;7.93;3.50;;;10.70;99.90;;;;;;4862670;29;20300;-72
2023/03/31 08:46:55;;;;;;;9.47;3.33;;;10.80;99.90;;;;;;4874988;29;20295;-72
2023/03/31 08:49:22;;;;;;;6.63;3.33;;;10.90;99.90;;;;;;4861514;29;20324;-73
2023/03/31 08:52:00;;;;;;;7.70;3.47;;;10.90;99.90;;;;;;4861015;29;20864;-73
2023/03/31 08:54:41;;;;;;;6.97;2.93;;;11.00;99.90;;;;;;4876922;29;20726;-73
2023/03/31 08:57:19;;;;;;;8.83;3.23;;;11.00;99.90;;;;;;4861802;29;20288;-73
2023/03/31 08:59:46;;;;;;;8.77;3.30;;;11.10;99.90;;;;;;4859684;29;20638;-73
2023/03/31 09:02:12;;;;;;;9.33;2.90;;;11.20;99.90;;;;;;4860854;29;20289;-73
2023/03/31 09:04:53;;;;;;;9.00;2.87;;;11.20;99.90;;;;;;4861124;29;20299;-73
2023/03/31 09:07:22;;;;;;;8.17;3.07;;;11.40;99.90;;;;;;4860484;29;20383;-73
2023/03/31 09:09:59;;;;;;;8.40;3.17;;;11.40;99.90;;;;;;4860763;29;20293;-73
2023/03/31 09:12:38;;;;;;;9.23;2.90;;;11.50;99.90;;;;;;4860266;29;20365;-73
2023/03/31 09:15:10;;;;;;;6.57;2.73;;;11.60;99.90;;;;;;4854064;29;20820;-73
2023/03/31 09:17:46;;;;;;;6.70;2.60;;;11.70;99.90;;;;;;4861665;29;20812;-73
2023/03/31 09:20:28;;;;;;;8.70;2.27;;;11.80;99.90;;;;;;4876210;29;20289;-73
2023/03/31 09:23:09;;;;;;;5.40;1.67;;;11.80;99.90;;;;;;4856826;29;20288;-73
2023/03/31 09:25:38;;;;;;;5.50;1.60;;;11.80;99.90;;;;;;4860488;29;20319;-73
2023/03/31 09:28:13;;;;;;;6.70;1.60;;;11.60;99.90;;;;;;4876731;29;20316;-73
2023/03/31 09:30:41;;;;;;;6.30;2.10;;;11.50;99.90;;;;;;4861387;29;20824;-73
2023/03/31 09:33:18;;;;;;;6.93;1.80;;;11.40;99.90;;;;;;4875333;29;20596;-73
2023/03/31 09:35:45;;;;;;;6.00;1.60;;;11.40;99.90;;;;;;4891384;29;20674;-73
2023/03/31 09:38:12;;;;;;;5.87;1.70;;;11.50;99.90;;;;;;4876928;29;20623;-73
2023/03/31 09:40:38;;;;;;;6.67;1.67;;;11.60;99.90;;;;;;4861390;29;20778;-73
2023/03/31 09:43:19;;;;;;;6.20;1.90;;;11.70;99.90;;;;;;4861328;29;20897;-73
2023/03/31 09:45:44;;;;;;;6.87;1.97;;;11.70;99.90;;;;;;4860100;29;20300;-73
2023/03/31 09:48:15;;;;;;;6.90;2.20;;;11.70;99.90;;;;;;4876367;29;20317;-73
2023/03/31 09:50:51;;;;;;;4.63;2.03;;;11.60;99.90;;;;;;4861491;29;20037;-73
2023/03/31 09:53:40;;;;;;;6.43;2.27;;;11.60;99.90;;;;;;4860487;29;20281;-73
2023/03/31 09:56:07;;;;;;;10.70;2.30;;;11.70;99.90;;;;;;4813554;29;20297;-73
2023/03/31 09:58:45;;;;;;;7.80;2.10;;;11.70;99.90;;;;;;4861117;29;20288;-73
2023/03/31 10:01:13;;;;;;;7.40;2.57;;;11.70;99.90;;;;;;4860501;29;20313;-73
2023/03/31 10:03:52;;;;;;;6.53;2.53;;;11.70;99.90;;;;;;4876097;29;20368;-73
2023/03/31 10:06:19;;;;;;;6.30;2.67;;;11.80;99.90;;;;;;4876028;29;20300;-73
2023/03/31 10:08:50;;;;;;;6.60;2.47;;;11.80;99.90;;;;;;4861641;29;20312;-73
2023/03/31 10:11:16;;;;;;;5.00;2.40;;;11.90;99.90;;;;;;4861391;29;20311;-73
2023/03/31 10:13:58;;;;;;;7.90;2.70;;;11.90;99.90;;;;;;4861508;29;20299;-72
2023/03/31 10:16:42;;;;;;;10.50;3.20;;;12.00;99.90;;;;;;4860945;29;20669;-72
2023/03/31 10:19:19;;;;;;;11.43;3.27;;;12.10;99.90;;;;;;4859796;29;20385;-72
2023/03/31 10:21:47;;;;;;;7.40;2.40;;;12.40;99.90;;;;;;4863420;29;20284;-72
2023/03/31 10:24:18;;;;;;;7.73;3.10;;;12.60;99.90;;;;;;4863819;29;20293;-73
2023/03/31 10:26:47;;;;;;;7.40;3.40;;;12.70;99.90;;;;;;4867448;29;20293;-74
2023/03/31 10:29:37;;;;;;;8.27;2.90;;;12.80;99.90;;;;;;4868020;29;20348;-74
2023/03/31 10:32:22;;;;;;;8.20;2.50;;;12.90;99.90;;;;;;4868785;29;20697;-73
2023/03/31 10:34:48;;;;;;;11.20;2.97;;;13.00;99.90;;;;;;4883173;29;20324;-74
2023/03/31 10:37:17;;;;;;;7.63;2.53;;;13.10;99.90;;;;;;4866570;29;20283;-74
2023/03/31 10:39:46;;;;;;;8.87;2.90;;;13.20;99.90;;;;;;4868676;29;20289;-74
2023/03/31 10:42:22;;;;;;;9.50;2.67;;;13.30;99.90;;;;;;4881851;29;20320;-73
2023/03/31 10:44:48;;;;;;;6.70;2.60;;;13.50;99.90;;;;;;4883378;29;20301;-73
2023/03/31 10:47:18;;;;;;;10.97;3.10;;;13.70;99.90;;;;;;4867044;29;20344;-74
2023/03/31 10:49:46;;;;;;;9.30;2.77;;;13.80;99.90;;;;;;4868122;29;20044;-73
2023/03/31 10:52:22;;;;;;;8.87;2.50;;;13.90;99.90;;;;;;4853204;29;20281;-73
2023/03/31 10:55:00;;;;;;;8.23;2.27;;;14.00;99.90;;;;;;4867935;29;21230;-73
2023/03/31 10:57:49;;;;;;;13.47;2.67;;;14.10;99.90;;;;;;4867420;29;20292;-73
2023/03/31 11:00:59;;;;;;;10.50;2.47;;;14.10;99.90;;;;;;4866020;29;20312;-73
2023/03/31 11:03:49;;;;;;;8.57;2.43;;;14.20;99.90;;;;;;4852340;29;20884;-73
2023/03/31 11:06:25;;;;;;;8.43;2.13;;;14.30;99.90;;;;;;4882255;29;20300;-73
2023/03/31 11:09:12;;;;;;;7.73;1.53;;;14.40;99.90;;;;;;4882126;29;20804;-73
2023/03/31 11:12:03;;;;;;;6.40;1.77;;;14.40;99.90;;;;;;4866548;29;20289;-74
2023/03/31 11:14:51;;;;;;;7.00;1.50;;;14.50;99.90;;;;;;4883059;29;20784;-73
2023/03/31 11:17:32;;;;;;;6.20;1.53;;;14.40;99.90;;;;;;4879596;29;20309;-74
2023/03/31 11:20:11;;;;;;;7.13;1.40;;;14.30;99.90;;;;;;4866663;29;20280;-74
2023/03/31 11:23:01;;;;;;;8.67;1.40;;;14.30;99.90;;;;;;4880297;29;20281;-74
2023/03/31 11:25:46;;;;;;;7.90;1.57;;;14.40;99.90;;;;;;4864869;29;20314;-74
2023/03/31 11:28:50;;;;;;;8.73;1.50;;;14.40;99.90;;;;;;4881955;29;20320;-74
2023/03/31 11:31:21;;;;;;;7.33;1.83;;;14.30;99.90;;;;;;4853004;29;20091;-74
2023/03/31 11:34:15;;;;;;;8.30;1.73;;;14.20;99.90;;;;;;4864504;29;20459;-73
2023/03/31 11:36:48;;;;;;;8.77;2.00;;;14.20;99.90;;;;;;4879508;29;20794;-73
2023/03/31 11:39:35;;;;;;;6.97;1.50;;;14.10;99.90;;;;;;4866235;29;20336;-73
2023/03/31 11:42:07;;;;;;;6.23;1.93;;;14.00;99.90;;;;;;4880668;29;20295;-73
2023/03/31 11:44:51;;;;;;;10.63;2.10;;;13.90;99.90;;;;;;4864379;29;20297;-73
2023/03/31 11:47:29;;;;;;;7.97;2.20;;;13.90;99.90;;;;;;4857401;29;20311;-73
2023/03/31 11:50:02;;;;;;;8.87;2.30;;;13.70;99.90;;;;;;4865699;29;20296;-73
2023/03/31 11:52:34;;;;;;;5.90;1.93;;;13.60;99.90;;;;;;4881618;29;20396;-72
2023/03/31 11:55:27;;;;;;;6.97;1.83;;;13.30;99.90;;;;;;4874747;29;20317;-73
2023/03/31 11:57:55;;;;;;;8.43;2.23;;;13.10;99.90;;;;;;4847848;29;20320;-73
2023/03/31 12:00:27;;;;;;;9.13;2.33;;;12.90;99.90;;;;;;4862311;29;20361;-73
2023/03/31 12:03:18;;;;;;;9.40;2.70;;;12.90;99.90;;;;;;4875512;29;20311;-73
2023/03/31 12:05:55;;;;;;;8.33;2.47;;;12.80;99.90;;;;;;4861864;29;20295;-73
2023/03/31 12:08:40;;;;;;;8.50;2.53;;;12.90;99.90;;;;;;4876875;29;20317;-73
2023/03/31 12:11:18;;;;;;;8.68;2.42;;;12.90;99.90;;;;;;4874526;29;20311;-73
2023/03/31 12:13:59;;;;;;;10.27;3.23;;;13.00;99.90;;;;;;4863031;29;20489;-73
2023/03/31 12:16:30;;;;;;;12.30;2.97;;;13.10;99.90;;;;;;4856014;29;20297;-73
2023/03/31 12:19:23;;;;;;;9.13;3.40;;;13.20;99.90;;;;;;4871906;29;20307;-73
2023/03/31 12:21:59;;;;;;;9.20;2.73;;;13.30;99.90;;;;;;4861301;29;20813;-72
2023/03/31 12:24:25;;;;;;;9.97;2.80;;;13.40;99.90;;;;;;4857772;29;20416;-72
2023/03/31 12:27:00;;;;;;;8.80;3.13;;;13.50;99.90;;;;;;4856032;29;20299;-72
2023/03/31 12:29:45;;;;;;;8.88;2.60;;;13.70;99.90;;;;;;4875858;29;20305;-72
2023/03/31 12:32:14;;;;;;;;;;;13.80;99.90;;;;;;4862011;29;20775;-73
2023/03/31 12:34:53;;;;;;;9.13;2.40;;;13.70;99.90;;;;;;4876602;29;19919;-73
2023/03/31 12:38:08;;;;;;;10.47;3.60;;;13.60;99.90;;;;;;4862345;29;20334;-73
2023/03/31 12:40:49;;;;;;;7.70;2.20;;;13.50;99.90;;;;;;4853225;29;20371;-73
2023/03/31 12:43:34;;;;;;;10.60;2.07;;;13.50;99.90;;;;;;4861661;29;20281;-73
2023/03/31 12:46:09;;;;;;;9.50;1.83;;;13.60;99.90;;;;;;4862817;29;20312;-73
2023/03/31 12:48:50;;;;;;;10.43;2.03;;;13.60;99.90;;;;;;4860561;29;20312;-73
2023/03/31 12:51:18;;;;;;;8.83;1.90;;;13.50;99.90;;;;;;4862134;29;20048;-73
2023/03/31 12:54:15;;;;;;;8.33;1.83;;;13.50;99.90;;;;;;4862550;29;20285;-73
2023/03/31 12:56:59;;;;;;;6.50;1.53;;;13.40;99.90;;;;;;4860425;29;20301;-73
2023/03/31 12:59:38;;;;;;;6.57;1.30;;;13.40;99.90;;;;;;4876486;29;20307;-73
2023/03/31 13:02:15;;;;;;;9.43;1.20;;;13.30;99.90;;;;;;4859023;29;20801;-73
2023/03/31 13:04:42;;;;;;;7.60;1.23;;;13.30;99.90;;;;;;4871043;29;20639;-73
2023/03/31 13:07:26;;;;;;;6.50;1.30;;;13.30;99.90;;;;;;4877107;29;20281;-73
2023/03/31 13:09:57;;;;;;;6.93;1.33;;;13.30;99.90;;;;;;4860478;29;20300;-73
2023/03/31 13:12:26;;;;;;;6.20;1.20;;;13.40;99.90;;;;;;4861036;29;20645;-73
2023/03/31 13:14:58;;;;;;;6.40;1.33;;;13.40;99.90;;;;;;4876772;29;20360;-73
2023/03/31 13:17:29;;;;;;;6.30;0.97;;;13.50;99.90;;;;;;4875089;29;20760;-73